sensor_id;sensor_type;location;lat;lon;timestamp;P1;durP1;ratioP1;P2;durP2;ratioP2
59159;SDS011;44941;45.058;20.076;2023-04-06T00:00:43;15.98;;;9.80;;
59159;SDS011;44941;45.058;20.076;2023-04-06T00:03:09;16.75;;;9.48;;
59159;SDS011;44941;45.058;20.076;2023-04-06T00:05:35;17.70;;;9.00;;
59159;SDS011;44941;45.058;20.076;2023-04-06T00:10:55;14.73;;;9.50;;
59159;SDS011;44941;45.058;20.076;2023-04-06T00:13:21;16.63;;;9.65;;
59159;SDS011;44941;45.058;20.076;2023-04-06T00:15:47;16.20;;;8.73;;
59159;SDS011;44941;45.058;20.076;2023-04-06T00:18:13;19.92;;;9.80;;
59159;SDS011;44941;45.058;20.076;2023-04-06T00:20:39;14.73;;;8.63;;
59159;SDS011;44941;45.058;20.076;2023-04-06T00:25:50;19.45;;;10.52;;
59159;SDS011;44941;45.058;20.076;2023-04-06T00:28:16;18.17;;;10.27;;
59159;SDS011;44941;45.058;20.076;2023-04-06T00:33:11;16.90;;;9.52;;
59159;SDS011;44941;45.058;20.076;2023-04-06T00:35:37;15.40;;;9.70;;
59159;SDS011;44941;45.058;20.076;2023-04-06T00:41:14;17.73;;;10.05;;
59159;SDS011;44941;45.058;20.076;2023-04-06T00:43:40;17.08;;;10.13;;
59159;SDS011;44941;45.058;20.076;2023-04-06T00:46:06;16.08;;;9.82;;
59159;SDS011;44941;45.058;20.076;2023-04-06T00:48:32;17.17;;;10.02;;
59159;SDS011;44941;45.058;20.076;2023-04-06T00:50:58;15.20;;;9.32;;
59159;SDS011;44941;45.058;20.076;2023-04-06T00:53:25;18.55;;;10.88;;
59159;SDS011;44941;45.058;20.076;2023-04-06T00:55:51;16.35;;;10.32;;
59159;SDS011;44941;45.058;20.076;2023-04-06T00:58:17;16.42;;;10.10;;
59159;SDS011;44941;45.058;20.076;2023-04-06T01:00:43;18.98;;;9.70;;
59159;SDS011;44941;45.058;20.076;2023-04-06T01:03:09;18.80;;;10.80;;
59159;SDS011;44941;45.058;20.076;2023-04-06T01:05:36;20.58;;;10.13;;
59159;SDS011;44941;45.058;20.076;2023-04-06T01:10:56;18.08;;;9.23;;
59159;SDS011;44941;45.058;20.076;2023-04-06T01:13:22;18.42;;;8.63;;
59159;SDS011;44941;45.058;20.076;2023-04-06T01:15:48;13.73;;;8.07;;
59159;SDS011;44941;45.058;20.076;2023-04-06T01:18:14;15.30;;;8.88;;
59159;SDS011;44941;45.058;20.076;2023-04-06T01:20:41;14.45;;;8.77;;
59159;SDS011;44941;45.058;20.076;2023-04-06T01:23:07;17.33;;;9.35;;
59159;SDS011;44941;45.058;20.076;2023-04-06T01:25:33;16.85;;;10.43;;
59159;SDS011;44941;45.058;20.076;2023-04-06T01:27:59;18.23;;;10.38;;
59159;SDS011;44941;45.058;20.076;2023-04-06T01:30:25;18.15;;;9.48;;
59159;SDS011;44941;45.058;20.076;2023-04-06T01:32:51;17.83;;;9.18;;
59159;SDS011;44941;45.058;20.076;2023-04-06T01:35:21;18.92;;;9.43;;
59159;SDS011;44941;45.058;20.076;2023-04-06T01:37:51;14.52;;;8.88;;
59159;SDS011;44941;45.058;20.076;2023-04-06T01:40:17;15.65;;;9.77;;
59159;SDS011;44941;45.058;20.076;2023-04-06T01:50:30;16.77;;;9.93;;
59159;SDS011;44941;45.058;20.076;2023-04-06T01:52:56;15.57;;;9.38;;
59159;SDS011;44941;45.058;20.076;2023-04-06T01:55:22;17.35;;;10.20;;
59159;SDS011;44941;45.058;20.076;2023-04-06T01:57:48;18.50;;;9.63;;
59159;SDS011;44941;45.058;20.076;2023-04-06T02:00:15;18.90;;;10.73;;
59159;SDS011;44941;45.058;20.076;2023-04-06T02:50:57;16.48;;;9.30;;
59159;SDS011;44941;45.058;20.076;2023-04-06T02:59:42;17.02;;;7.82;;
59159;SDS011;44941;45.058;20.076;2023-04-06T04:09:07;17.25;;;8.85;;
59159;SDS011;44941;45.058;20.076;2023-04-06T04:12:12;16.88;;;9.23;;
59159;SDS011;44941;45.058;20.076;2023-04-06T04:21:05;18.15;;;10.20;;
59159;SDS011;44941;45.058;20.076;2023-04-06T04:29:39;20.85;;;13.13;;
59159;SDS011;44941;45.058;20.076;2023-04-06T04:32:24;20.23;;;11.93;;
59159;SDS011;44941;45.058;20.076;2023-04-06T04:38:14;23.48;;;13.80;;
59159;SDS011;44941;45.058;20.076;2023-04-06T04:40:40;24.05;;;12.77;;
59159;SDS011;44941;45.058;20.076;2023-04-06T04:43:06;20.73;;;11.55;;
59159;SDS011;44941;45.058;20.076;2023-04-06T04:45:33;23.88;;;12.98;;
59159;SDS011;44941;45.058;20.076;2023-04-06T04:47:59;26.48;;;15.77;;
59159;SDS011;44941;45.058;20.076;2023-04-06T04:50:25;28.13;;;18.33;;
59159;SDS011;44941;45.058;20.076;2023-04-06T04:52:51;35.78;;;21.73;;
59159;SDS011;44941;45.058;20.076;2023-04-06T04:55:17;40.95;;;21.50;;
59159;SDS011;44941;45.058;20.076;2023-04-06T04:57:43;41.00;;;22.75;;
59159;SDS011;44941;45.058;20.076;2023-04-06T05:00:09;31.58;;;17.95;;
59159;SDS011;44941;45.058;20.076;2023-04-06T05:02:35;25.75;;;15.23;;
59159;SDS011;44941;45.058;20.076;2023-04-06T05:05:01;24.30;;;13.18;;
59159;SDS011;44941;45.058;20.076;2023-04-06T05:07:28;21.13;;;13.80;;
59159;SDS011;44941;45.058;20.076;2023-04-06T05:09:54;22.67;;;13.23;;
59159;SDS011;44941;45.058;20.076;2023-04-06T05:12:20;24.85;;;14.20;;
59159;SDS011;44941;45.058;20.076;2023-04-06T05:14:46;24.45;;;15.27;;
59159;SDS011;44941;45.058;20.076;2023-04-06T05:17:12;24.20;;;14.65;;
59159;SDS011;44941;45.058;20.076;2023-04-06T05:19:38;33.67;;;20.83;;
59159;SDS011;44941;45.058;20.076;2023-04-06T05:22:04;40.05;;;23.35;;
59159;SDS011;44941;45.058;20.076;2023-04-06T05:24:30;71.45;;;42.47;;
59159;SDS011;44941;45.058;20.076;2023-04-06T05:26:57;47.67;;;27.52;;
59159;SDS011;44941;45.058;20.076;2023-04-06T05:29:23;41.33;;;23.98;;
59159;SDS011;44941;45.058;20.076;2023-04-06T05:31:50;29.30;;;16.63;;
59159;SDS011;44941;45.058;20.076;2023-04-06T05:34:16;24.42;;;13.35;;
59159;SDS011;44941;45.058;20.076;2023-04-06T05:36:42;24.77;;;13.27;;
59159;SDS011;44941;45.058;20.076;2023-04-06T05:39:08;22.13;;;12.63;;
59159;SDS011;44941;45.058;20.076;2023-04-06T05:41:34;25.63;;;12.65;;
59159;SDS011;44941;45.058;20.076;2023-04-06T05:44:00;20.65;;;12.80;;
59159;SDS011;44941;45.058;20.076;2023-04-06T05:46:26;24.52;;;14.20;;
59159;SDS011;44941;45.058;20.076;2023-04-06T05:51:28;22.65;;;13.13;;
59159;SDS011;44941;45.058;20.076;2023-04-06T05:53:55;23.65;;;13.75;;
59159;SDS011;44941;45.058;20.076;2023-04-06T05:56:21;23.98;;;13.50;;
59159;SDS011;44941;45.058;20.076;2023-04-06T05:58:47;24.67;;;13.80;;
59159;SDS011;44941;45.058;20.076;2023-04-06T06:01:13;19.42;;;12.23;;
59159;SDS011;44941;45.058;20.076;2023-04-06T06:03:39;21.83;;;11.65;;
59159;SDS011;44941;45.058;20.076;2023-04-06T06:06:05;22.75;;;12.20;;
59159;SDS011;44941;45.058;20.076;2023-04-06T06:08:31;23.90;;;12.48;;
59159;SDS011;44941;45.058;20.076;2023-04-06T06:10:57;18.95;;;12.00;;
59159;SDS011;44941;45.058;20.076;2023-04-06T06:13:23;22.05;;;12.43;;
59159;SDS011;44941;45.058;20.076;2023-04-06T06:15:49;17.48;;;10.75;;
59159;SDS011;44941;45.058;20.076;2023-04-06T06:18:16;18.17;;;10.40;;
59159;SDS011;44941;45.058;20.076;2023-04-06T06:20:42;21.30;;;11.02;;
59159;SDS011;44941;45.058;20.076;2023-04-06T06:23:08;19.45;;;10.60;;
59159;SDS011;44941;45.058;20.076;2023-04-06T06:28:22;19.45;;;10.48;;
59159;SDS011;44941;45.058;20.076;2023-04-06T06:30:50;17.00;;;8.05;;
59159;SDS011;44941;45.058;20.076;2023-04-06T06:33:16;12.05;;;7.20;;
59159;SDS011;44941;45.058;20.076;2023-04-06T06:35:42;17.88;;;7.97;;
59159;SDS011;44941;45.058;20.076;2023-04-06T06:38:08;14.93;;;8.63;;
59159;SDS011;44941;45.058;20.076;2023-04-06T06:40:34;16.45;;;7.72;;
59159;SDS011;44941;45.058;20.076;2023-04-06T06:43:01;18.02;;;9.20;;
59159;SDS011;44941;45.058;20.076;2023-04-06T06:45:27;18.58;;;9.73;;
59159;SDS011;44941;45.058;20.076;2023-04-06T06:47:54;18.45;;;10.00;;
59159;SDS011;44941;45.058;20.076;2023-04-06T06:50:20;32.25;;;15.90;;
59159;SDS011;44941;45.058;20.076;2023-04-06T06:52:46;38.47;;;18.63;;
59159;SDS011;44941;45.058;20.076;2023-04-06T06:55:12;28.73;;;14.07;;
59159;SDS011;44941;45.058;20.076;2023-04-06T06:57:39;24.38;;;11.82;;
59159;SDS011;44941;45.058;20.076;2023-04-06T07:00:07;26.52;;;14.00;;
59159;SDS011;44941;45.058;20.076;2023-04-06T07:02:34;25.48;;;13.82;;
59159;SDS011;44941;45.058;20.076;2023-04-06T07:05:00;20.65;;;12.35;;
59159;SDS011;44941;45.058;20.076;2023-04-06T07:07:26;18.95;;;11.38;;
59159;SDS011;44941;45.058;20.076;2023-04-06T07:09:53;20.88;;;13.38;;
59159;SDS011;44941;45.058;20.076;2023-04-06T07:12:19;20.52;;;12.02;;
59159;SDS011;44941;45.058;20.076;2023-04-06T07:14:45;22.00;;;12.10;;
59159;SDS011;44941;45.058;20.076;2023-04-06T07:17:11;19.92;;;10.77;;
59159;SDS011;44941;45.058;20.076;2023-04-06T07:19:37;21.48;;;12.27;;
59159;SDS011;44941;45.058;20.076;2023-04-06T07:22:03;20.98;;;11.13;;
59159;SDS011;44941;45.058;20.076;2023-04-06T07:24:29;17.65;;;9.70;;
59159;SDS011;44941;45.058;20.076;2023-04-06T07:26:55;23.42;;;11.75;;
59159;SDS011;44941;45.058;20.076;2023-04-06T07:29:21;19.85;;;11.30;;
59159;SDS011;44941;45.058;20.076;2023-04-06T07:31:48;19.85;;;11.60;;
59159;SDS011;44941;45.058;20.076;2023-04-06T07:34:14;25.58;;;13.27;;
59159;SDS011;44941;45.058;20.076;2023-04-06T07:36:40;23.10;;;12.18;;
59159;SDS011;44941;45.058;20.076;2023-04-06T07:39:06;24.83;;;12.48;;
59159;SDS011;44941;45.058;20.076;2023-04-06T07:41:33;19.27;;;10.15;;
59159;SDS011;44941;45.058;20.076;2023-04-06T07:43:59;16.50;;;8.30;;
59159;SDS011;44941;45.058;20.076;2023-04-06T07:46:25;17.58;;;8.15;;
59159;SDS011;44941;45.058;20.076;2023-04-06T07:48:51;12.60;;;6.70;;
59159;SDS011;44941;45.058;20.076;2023-04-06T07:51:17;13.25;;;6.80;;
59159;SDS011;44941;45.058;20.076;2023-04-06T07:53:46;14.88;;;7.55;;
59159;SDS011;44941;45.058;20.076;2023-04-06T07:56:12;11.57;;;6.40;;
59159;SDS011;44941;45.058;20.076;2023-04-06T07:58:40;17.30;;;7.38;;
59159;SDS011;44941;45.058;20.076;2023-04-06T08:01:06;20.08;;;7.95;;
59159;SDS011;44941;45.058;20.076;2023-04-06T08:03:35;15.05;;;6.95;;
59159;SDS011;44941;45.058;20.076;2023-04-06T08:06:02;12.80;;;5.82;;
59159;SDS011;44941;45.058;20.076;2023-04-06T08:08:28;11.52;;;5.82;;
59159;SDS011;44941;45.058;20.076;2023-04-06T08:10:54;11.52;;;5.95;;
59159;SDS011;44941;45.058;20.076;2023-04-06T08:13:20;13.63;;;4.50;;
59159;SDS011;44941;45.058;20.076;2023-04-06T08:15:46;10.88;;;4.93;;
59159;SDS011;44941;45.058;20.076;2023-04-06T08:18:12;14.95;;;5.30;;
59159;SDS011;44941;45.058;20.076;2023-04-06T08:20:39;9.55;;;5.25;;
59159;SDS011;44941;45.058;20.076;2023-04-06T08:23:05;8.65;;;4.47;;
59159;SDS011;44941;45.058;20.076;2023-04-06T08:25:41;8.43;;;4.30;;
59159;SDS011;44941;45.058;20.076;2023-04-06T08:28:08;8.15;;;4.65;;
59159;SDS011;44941;45.058;20.076;2023-04-06T08:30:34;8.30;;;4.78;;
59159;SDS011;44941;45.058;20.076;2023-04-06T08:33:00;10.73;;;4.90;;
59159;SDS011;44941;45.058;20.076;2023-04-06T08:35:27;11.98;;;5.20;;
59159;SDS011;44941;45.058;20.076;2023-04-06T08:37:53;9.40;;;4.72;;
59159;SDS011;44941;45.058;20.076;2023-04-06T08:40:20;13.07;;;5.75;;
59159;SDS011;44941;45.058;20.076;2023-04-06T08:42:50;10.77;;;5.90;;
59159;SDS011;44941;45.058;20.076;2023-04-06T08:45:17;10.57;;;6.00;;
59159;SDS011;44941;45.058;20.076;2023-04-06T08:47:46;11.98;;;5.50;;
59159;SDS011;44941;45.058;20.076;2023-04-06T08:50:13;12.98;;;5.85;;
59159;SDS011;44941;45.058;20.076;2023-04-06T08:52:39;10.43;;;5.50;;
59159;SDS011;44941;45.058;20.076;2023-04-06T08:55:06;10.43;;;5.28;;
59159;SDS011;44941;45.058;20.076;2023-04-06T08:57:32;9.90;;;5.28;;
59159;SDS011;44941;45.058;20.076;2023-04-06T09:00:00;12.20;;;5.70;;
59159;SDS011;44941;45.058;20.076;2023-04-06T09:02:26;12.75;;;5.55;;
59159;SDS011;44941;45.058;20.076;2023-04-06T09:04:53;14.95;;;6.35;;
59159;SDS011;44941;45.058;20.076;2023-04-06T09:07:20;12.57;;;6.30;;
59159;SDS011;44941;45.058;20.076;2023-04-06T09:09:46;13.27;;;6.80;;
59159;SDS011;44941;45.058;20.076;2023-04-06T09:12:22;10.98;;;6.60;;
59159;SDS011;44941;45.058;20.076;2023-04-06T09:14:49;11.30;;;6.05;;
59159;SDS011;44941;45.058;20.076;2023-04-06T09:17:28;13.02;;;6.25;;
59159;SDS011;44941;45.058;20.076;2023-04-06T09:19:55;12.05;;;6.05;;
59159;SDS011;44941;45.058;20.076;2023-04-06T09:22:21;11.50;;;5.82;;
59159;SDS011;44941;45.058;20.076;2023-04-06T09:24:50;16.58;;;6.10;;
59159;SDS011;44941;45.058;20.076;2023-04-06T09:27:16;12.35;;;6.07;;
59159;SDS011;44941;45.058;20.076;2023-04-06T09:29:43;14.27;;;6.38;;
59159;SDS011;44941;45.058;20.076;2023-04-06T09:32:10;13.30;;;6.30;;
59159;SDS011;44941;45.058;20.076;2023-04-06T09:34:37;13.98;;;7.10;;
59159;SDS011;44941;45.058;20.076;2023-04-06T09:37:13;11.93;;;6.45;;
59159;SDS011;44941;45.058;20.076;2023-04-06T09:39:39;15.65;;;8.38;;
59159;SDS011;44941;45.058;20.076;2023-04-06T09:42:06;22.85;;;9.50;;
59159;SDS011;44941;45.058;20.076;2023-04-06T09:44:32;12.15;;;6.05;;
59159;SDS011;44941;45.058;20.076;2023-04-06T09:46:58;13.50;;;6.78;;
59159;SDS011;44941;45.058;20.076;2023-04-06T09:49:24;13.15;;;6.90;;
59159;SDS011;44941;45.058;20.076;2023-04-06T09:51:53;18.13;;;8.38;;
59159;SDS011;44941;45.058;20.076;2023-04-06T09:54:21;13.77;;;6.72;;
59159;SDS011;44941;45.058;20.076;2023-04-06T10:01:56;14.52;;;6.25;;
59159;SDS011;44941;45.058;20.076;2023-04-06T10:07:00;14.00;;;6.97;;
59159;SDS011;44941;45.058;20.076;2023-04-06T10:09:28;18.45;;;6.97;;
59159;SDS011;44941;45.058;20.076;2023-04-06T10:12:02;12.55;;;6.30;;
59159;SDS011;44941;45.058;20.076;2023-04-06T10:14:28;15.00;;;6.85;;
59159;SDS011;44941;45.058;20.076;2023-04-06T10:16:55;16.27;;;6.60;;
59159;SDS011;44941;45.058;20.076;2023-04-06T10:19:23;13.88;;;6.50;;
59159;SDS011;44941;45.058;20.076;2023-04-06T10:21:51;13.20;;;6.50;;
59159;SDS011;44941;45.058;20.076;2023-04-06T10:24:19;11.23;;;6.40;;
59159;SDS011;44941;45.058;20.076;2023-04-06T10:27:26;12.52;;;6.68;;
59159;SDS011;44941;45.058;20.076;2023-04-06T10:29:45;14.30;;;6.30;;
59159;SDS011;44941;45.058;20.076;2023-04-06T10:32:11;11.10;;;6.20;;
59159;SDS011;44941;45.058;20.076;2023-04-06T10:34:37;15.07;;;6.47;;
59159;SDS011;44941;45.058;20.076;2023-04-06T10:37:13;17.13;;;6.68;;
59159;SDS011;44941;45.058;20.076;2023-04-06T10:39:46;13.27;;;6.53;;
59159;SDS011;44941;45.058;20.076;2023-04-06T10:42:12;14.23;;;6.22;;
59159;SDS011;44941;45.058;20.076;2023-04-06T10:44:42;12.70;;;6.65;;
59159;SDS011;44941;45.058;20.076;2023-04-06T10:47:15;12.35;;;5.97;;
59159;SDS011;44941;45.058;20.076;2023-04-06T10:49:42;18.70;;;7.85;;
59159;SDS011;44941;45.058;20.076;2023-04-06T10:52:08;14.82;;;7.75;;
59159;SDS011;44941;45.058;20.076;2023-04-06T10:54:34;14.60;;;7.88;;
59159;SDS011;44941;45.058;20.076;2023-04-06T10:57:06;14.77;;;7.28;;
59159;SDS011;44941;45.058;20.076;2023-04-06T10:59:32;13.43;;;7.15;;
59159;SDS011;44941;45.058;20.076;2023-04-06T11:01:58;14.88;;;6.50;;
59159;SDS011;44941;45.058;20.076;2023-04-06T11:04:24;16.20;;;6.35;;
59159;SDS011;44941;45.058;20.076;2023-04-06T11:06:50;11.70;;;6.30;;
59159;SDS011;44941;45.058;20.076;2023-04-06T11:09:26;13.43;;;7.18;;
59159;SDS011;44941;45.058;20.076;2023-04-06T11:11:52;13.10;;;6.72;;
59159;SDS011;44941;45.058;20.076;2023-04-06T11:14:21;11.73;;;5.95;;
59159;SDS011;44941;45.058;20.076;2023-04-06T11:16:47;12.18;;;7.20;;
59159;SDS011;44941;45.058;20.076;2023-04-06T11:19:15;14.68;;;7.25;;
59159;SDS011;44941;45.058;20.076;2023-04-06T11:21:42;12.43;;;6.45;;
59159;SDS011;44941;45.058;20.076;2023-04-06T11:24:09;12.37;;;6.90;;
59159;SDS011;44941;45.058;20.076;2023-04-06T11:26:40;14.85;;;7.28;;
59159;SDS011;44941;45.058;20.076;2023-04-06T11:29:06;13.23;;;7.22;;
59159;SDS011;44941;45.058;20.076;2023-04-06T11:31:41;11.95;;;6.93;;
59159;SDS011;44941;45.058;20.076;2023-04-06T11:34:11;12.65;;;7.03;;
59159;SDS011;44941;45.058;20.076;2023-04-06T11:36:41;11.77;;;6.88;;
59159;SDS011;44941;45.058;20.076;2023-04-06T11:39:07;16.35;;;8.00;;
59159;SDS011;44941;45.058;20.076;2023-04-06T11:41:34;11.38;;;6.30;;
59159;SDS011;44941;45.058;20.076;2023-04-06T11:44:01;13.88;;;6.80;;
59159;SDS011;44941;45.058;20.076;2023-04-06T11:46:30;13.95;;;7.15;;
59159;SDS011;44941;45.058;20.076;2023-04-06T11:48:59;13.15;;;7.13;;
59159;SDS011;44941;45.058;20.076;2023-04-06T11:51:26;15.52;;;7.20;;
59159;SDS011;44941;45.058;20.076;2023-04-06T11:53:52;15.15;;;7.97;;
59159;SDS011;44941;45.058;20.076;2023-04-06T11:56:25;15.25;;;7.70;;
59159;SDS011;44941;45.058;20.076;2023-04-06T11:58:51;13.65;;;7.30;;
59159;SDS011;44941;45.058;20.076;2023-04-06T12:01:17;16.45;;;7.18;;
59159;SDS011;44941;45.058;20.076;2023-04-06T12:03:43;18.02;;;9.88;;
59159;SDS011;44941;45.058;20.076;2023-04-06T12:06:10;17.63;;;7.97;;
59159;SDS011;44941;45.058;20.076;2023-04-06T12:08:36;13.73;;;6.68;;
59159;SDS011;44941;45.058;20.076;2023-04-06T12:11:02;18.63;;;7.40;;
59159;SDS011;44941;45.058;20.076;2023-04-06T12:13:28;16.80;;;8.02;;
59159;SDS011;44941;45.058;20.076;2023-04-06T12:15:54;13.93;;;7.63;;
59159;SDS011;44941;45.058;20.076;2023-04-06T12:18:20;23.60;;;11.27;;
59159;SDS011;44941;45.058;20.076;2023-04-06T12:20:46;16.58;;;8.00;;
59159;SDS011;44941;45.058;20.076;2023-04-06T12:23:12;17.23;;;8.45;;
59159;SDS011;44941;45.058;20.076;2023-04-06T12:25:39;15.98;;;6.93;;
59159;SDS011;44941;45.058;20.076;2023-04-06T12:28:06;13.60;;;7.03;;
59159;SDS011;44941;45.058;20.076;2023-04-06T12:30:32;13.32;;;7.13;;
59159;SDS011;44941;45.058;20.076;2023-04-06T12:32:58;15.52;;;8.23;;
59159;SDS011;44941;45.058;20.076;2023-04-06T12:35:24;16.50;;;8.80;;
59159;SDS011;44941;45.058;20.076;2023-04-06T12:37:50;13.80;;;8.18;;
59159;SDS011;44941;45.058;20.076;2023-04-06T12:40:16;15.38;;;8.38;;
59159;SDS011;44941;45.058;20.076;2023-04-06T12:42:42;16.75;;;8.55;;
59159;SDS011;44941;45.058;20.076;2023-04-06T12:45:10;13.63;;;7.22;;
59159;SDS011;44941;45.058;20.076;2023-04-06T12:47:36;12.73;;;7.20;;
59159;SDS011;44941;45.058;20.076;2023-04-06T12:50:03;15.20;;;6.78;;
59159;SDS011;44941;45.058;20.076;2023-04-06T12:52:30;12.25;;;6.65;;
59159;SDS011;44941;45.058;20.076;2023-04-06T12:54:57;13.07;;;6.85;;
59159;SDS011;44941;45.058;20.076;2023-04-06T12:57:25;13.13;;;6.38;;
59159;SDS011;44941;45.058;20.076;2023-04-06T12:59:51;12.90;;;7.18;;
59159;SDS011;44941;45.058;20.076;2023-04-06T13:02:17;12.68;;;6.45;;
59159;SDS011;44941;45.058;20.076;2023-04-06T13:04:45;13.18;;;7.50;;
59159;SDS011;44941;45.058;20.076;2023-04-06T13:07:11;16.35;;;7.72;;
59159;SDS011;44941;45.058;20.076;2023-04-06T13:09:38;11.85;;;7.32;;
59159;SDS011;44941;45.058;20.076;2023-04-06T13:12:04;17.13;;;7.00;;
59159;SDS011;44941;45.058;20.076;2023-04-06T13:14:30;13.90;;;6.95;;
59159;SDS011;44941;45.058;20.076;2023-04-06T13:16:57;12.52;;;7.13;;
59159;SDS011;44941;45.058;20.076;2023-04-06T13:19:23;14.50;;;8.18;;
59159;SDS011;44941;45.058;20.076;2023-04-06T13:21:50;12.23;;;6.78;;
59159;SDS011;44941;45.058;20.076;2023-04-06T13:24:16;15.13;;;6.80;;
59159;SDS011;44941;45.058;20.076;2023-04-06T13:26:42;16.73;;;8.45;;
59159;SDS011;44941;45.058;20.076;2023-04-06T13:29:08;14.18;;;7.63;;
59159;SDS011;44941;45.058;20.076;2023-04-06T13:31:34;14.25;;;7.18;;
59159;SDS011;44941;45.058;20.076;2023-04-06T13:34:01;12.55;;;7.57;;
59159;SDS011;44941;45.058;20.076;2023-04-06T13:36:27;14.52;;;7.78;;
59159;SDS011;44941;45.058;20.076;2023-04-06T13:38:53;18.25;;;8.23;;
59159;SDS011;44941;45.058;20.076;2023-04-06T13:41:20;12.25;;;7.40;;
59159;SDS011;44941;45.058;20.076;2023-04-06T13:43:47;14.80;;;8.18;;
59159;SDS011;44941;45.058;20.076;2023-04-06T13:46:13;13.48;;;7.80;;
59159;SDS011;44941;45.058;20.076;2023-04-06T13:48:39;15.98;;;8.45;;
59159;SDS011;44941;45.058;20.076;2023-04-06T13:51:12;13.27;;;7.47;;
59159;SDS011;44941;45.058;20.076;2023-04-06T13:53:38;17.23;;;8.48;;
59159;SDS011;44941;45.058;20.076;2023-04-06T13:56:04;14.18;;;7.82;;
59159;SDS011;44941;45.058;20.076;2023-04-06T14:01:07;17.38;;;7.97;;
59159;SDS011;44941;45.058;20.076;2023-04-06T14:03:34;15.98;;;8.18;;
59159;SDS011;44941;45.058;20.076;2023-04-06T14:06:01;18.30;;;8.02;;
59159;SDS011;44941;45.058;20.076;2023-04-06T14:08:27;12.10;;;7.43;;
59159;SDS011;44941;45.058;20.076;2023-04-06T14:10:53;15.45;;;7.60;;
59159;SDS011;44941;45.058;20.076;2023-04-06T14:13:20;12.43;;;6.60;;
59159;SDS011;44941;45.058;20.076;2023-04-06T14:15:47;12.35;;;6.65;;
59159;SDS011;44941;45.058;20.076;2023-04-06T14:18:13;13.98;;;7.15;;
59159;SDS011;44941;45.058;20.076;2023-04-06T14:20:39;14.13;;;7.10;;
59159;SDS011;44941;45.058;20.076;2023-04-06T14:23:05;10.93;;;6.32;;
59159;SDS011;44941;45.058;20.076;2023-04-06T14:25:31;12.52;;;6.85;;
59159;SDS011;44941;45.058;20.076;2023-04-06T14:30:26;12.20;;;6.50;;
59159;SDS011;44941;45.058;20.076;2023-04-06T14:32:52;16.42;;;7.03;;
59159;SDS011;44941;45.058;20.076;2023-04-06T14:37:55;10.98;;;6.38;;
59159;SDS011;44941;45.058;20.076;2023-04-06T14:40:22;10.13;;;6.22;;
59159;SDS011;44941;45.058;20.076;2023-04-06T14:42:55;12.10;;;6.45;;
59159;SDS011;44941;45.058;20.076;2023-04-06T14:45:21;11.27;;;6.70;;
59159;SDS011;44941;45.058;20.076;2023-04-06T14:47:47;14.70;;;7.47;;
59159;SDS011;44941;45.058;20.076;2023-04-06T14:50:13;10.98;;;6.45;;
59159;SDS011;44941;45.058;20.076;2023-04-06T14:52:39;11.65;;;6.28;;
59159;SDS011;44941;45.058;20.076;2023-04-06T14:55:06;15.95;;;7.00;;
59159;SDS011;44941;45.058;20.076;2023-04-06T14:57:32;13.88;;;5.95;;
59159;SDS011;44941;45.058;20.076;2023-04-06T14:59:58;16.25;;;6.25;;
59159;SDS011;44941;45.058;20.076;2023-04-06T15:02:24;11.10;;;6.50;;
59159;SDS011;44941;45.058;20.076;2023-04-06T15:04:50;11.40;;;6.03;;
59159;SDS011;44941;45.058;20.076;2023-04-06T15:09:52;14.88;;;6.55;;
59159;SDS011;44941;45.058;20.076;2023-04-06T15:12:18;11.18;;;6.07;;
59159;SDS011;44941;45.058;20.076;2023-04-06T15:14:44;12.13;;;6.57;;
59159;SDS011;44941;45.058;20.076;2023-04-06T15:17:10;12.75;;;6.40;;
59159;SDS011;44941;45.058;20.076;2023-04-06T15:19:36;13.55;;;7.28;;
59159;SDS011;44941;45.058;20.076;2023-04-06T15:22:04;11.57;;;6.47;;
59159;SDS011;44941;45.058;20.076;2023-04-06T15:24:30;15.75;;;6.50;;
59159;SDS011;44941;45.058;20.076;2023-04-06T15:26:56;22.05;;;6.90;;
59159;SDS011;44941;45.058;20.076;2023-04-06T15:29:22;16.42;;;6.90;;
59159;SDS011;44941;45.058;20.076;2023-04-06T15:31:48;14.75;;;8.40;;
59159;SDS011;44941;45.058;20.076;2023-04-06T15:34:14;12.57;;;6.90;;
59159;SDS011;44941;45.058;20.076;2023-04-06T15:36:40;12.27;;;7.13;;
59159;SDS011;44941;45.058;20.076;2023-04-06T15:39:08;15.75;;;8.18;;
59159;SDS011;44941;45.058;20.076;2023-04-06T15:41:34;12.57;;;7.75;;
59159;SDS011;44941;45.058;20.076;2023-04-06T15:44:09;15.07;;;7.10;;
59159;SDS011;44941;45.058;20.076;2023-04-06T15:46:35;13.32;;;6.78;;
59159;SDS011;44941;45.058;20.076;2023-04-06T15:49:02;13.23;;;7.28;;
59159;SDS011;44941;45.058;20.076;2023-04-06T15:51:28;12.25;;;6.40;;
59159;SDS011;44941;45.058;20.076;2023-04-06T15:53:54;13.38;;;5.68;;
59159;SDS011;44941;45.058;20.076;2023-04-06T15:56:21;12.40;;;5.45;;
59159;SDS011;44941;45.058;20.076;2023-04-06T15:58:48;15.55;;;5.88;;
59159;SDS011;44941;45.058;20.076;2023-04-06T16:01:16;10.85;;;5.65;;
59159;SDS011;44941;45.058;20.076;2023-04-06T16:03:42;14.80;;;5.80;;
59159;SDS011;44941;45.058;20.076;2023-04-06T16:06:08;13.73;;;5.63;;
59159;SDS011;44941;45.058;20.076;2023-04-06T16:08:34;11.73;;;5.85;;
59159;SDS011;44941;45.058;20.076;2023-04-06T16:11:01;11.93;;;5.68;;
59159;SDS011;44941;45.058;20.076;2023-04-06T16:13:33;12.73;;;5.72;;
59159;SDS011;44941;45.058;20.076;2023-04-06T16:16:00;10.20;;;5.75;;
59159;SDS011;44941;45.058;20.076;2023-04-06T16:21:03;12.05;;;5.30;;
59159;SDS011;44941;45.058;20.076;2023-04-06T16:23:32;16.23;;;6.05;;
59159;SDS011;44941;45.058;20.076;2023-04-06T16:25:58;17.00;;;6.93;;
59159;SDS011;44941;45.058;20.076;2023-04-06T16:28:38;16.80;;;6.20;;
59159;SDS011;44941;45.058;20.076;2023-04-06T16:31:04;14.90;;;6.03;;
59159;SDS011;44941;45.058;20.076;2023-04-06T16:33:30;16.40;;;8.27;;
59159;SDS011;44941;45.058;20.076;2023-04-06T16:35:56;14.70;;;7.82;;
59159;SDS011;44941;45.058;20.076;2023-04-06T16:38:22;16.02;;;8.25;;
59159;SDS011;44941;45.058;20.076;2023-04-06T16:40:58;19.95;;;9.55;;
59159;SDS011;44941;45.058;20.076;2023-04-06T16:46:17;15.40;;;7.53;;
59159;SDS011;44941;45.058;20.076;2023-04-06T16:48:43;13.82;;;6.90;;
59159;SDS011;44941;45.058;20.076;2023-04-06T16:51:10;18.67;;;7.55;;
59159;SDS011;44941;45.058;20.076;2023-04-06T16:53:36;12.90;;;7.35;;
59159;SDS011;44941;45.058;20.076;2023-04-06T16:56:03;15.65;;;5.88;;
59159;SDS011;44941;45.058;20.076;2023-04-06T17:01:23;13.40;;;5.28;;
59159;SDS011;44941;45.058;20.076;2023-04-06T17:03:50;16.73;;;9.55;;
59159;SDS011;44941;45.058;20.076;2023-04-06T17:06:16;14.07;;;8.60;;
59159;SDS011;44941;45.058;20.076;2023-04-06T17:08:42;18.13;;;9.60;;
59159;SDS011;44941;45.058;20.076;2023-04-06T17:11:08;23.00;;;10.02;;
59159;SDS011;44941;45.058;20.076;2023-04-06T17:13:35;14.32;;;7.85;;
59159;SDS011;44941;45.058;20.076;2023-04-06T17:16:01;16.48;;;6.85;;
59159;SDS011;44941;45.058;20.076;2023-04-06T17:18:27;14.52;;;7.85;;
59159;SDS011;44941;45.058;20.076;2023-04-06T17:20:57;16.02;;;7.28;;
59159;SDS011;44941;45.058;20.076;2023-04-06T17:23:24;15.80;;;8.00;;
59159;SDS011;44941;45.058;20.076;2023-04-06T17:25:51;19.45;;;8.52;;
59159;SDS011;44941;45.058;20.076;2023-04-06T17:28:18;22.05;;;9.30;;